Time;durP1;ratioP1;P1;durP2;ratioP2;P2;SDS_P1;SDS_P2;PMS_P1;PMS_P2;Temp;Humidity;BMP_temperature;BMP_pressure;BME280_temperature;BME280_humidity;BME280_pressure;Samples;Min_cycle;Max_cycle;Signal;HPM_P1;HPM_P2
2023/04/20 00:00:10;;;;;;;9.82;1.70;;;7.90;99.90;;;;;;5092766;28;20046;-86
2023/04/20 00:02:37;;;;;;;9.02;2.00;;;7.80;99.90;;;;;;5092345;28;20547;-86
2023/04/20 00:05:06;;;;;;;9.18;1.52;;;7.80;99.90;;;;;;5095211;27;20046;-85
2023/04/20 00:07:32;;;;;;;4.68;1.80;;;7.80;99.90;;;;;;5095537;27;20035;-86
2023/04/20 00:09:58;;;;;;;8.70;2.10;;;8.20;99.90;;;;;;5096637;27;20375;-87
2023/04/20 00:12:23;;;;;;;7.10;1.40;;;8.30;99.90;;;;;;5096340;27;20039;-86
2023/04/20 00:14:49;;;;;;;3.88;1.60;;;7.70;99.90;;;;;;5098038;27;20046;-86
2023/04/20 00:17:15;;;;;;;6.18;1.60;;;7.70;99.90;;;;;;5096256;27;20039;-86
2023/04/20 00:19:40;;;;;;;9.82;1.77;;;7.70;99.90;;;;;;5097296;27;20077;-85
2023/04/20 00:22:06;;;;;;;5.10;1.83;;;7.70;99.90;;;;;;5095405;27;20442;-86
2023/04/20 00:24:32;;;;;;;3.88;1.52;;;7.70;99.90;;;;;;5097134;27;20039;-86
2023/04/20 00:26:57;;;;;;;10.18;1.92;;;7.60;99.90;;;;;;5083760;27;20047;-87
2023/04/20 00:29:23;;;;;;;5.80;2.10;;;7.60;99.90;;;;;;5101012;27;20528;-87
2023/04/20 00:31:49;;;;;;;10.15;2.10;;;7.60;99.90;;;;;;5094887;28;20043;-87
2023/04/20 00:34:15;;;;;;;5.22;1.85;;;7.60;99.90;;;;;;5090007;27;20091;-87
2023/04/20 00:36:40;;;;;;;5.25;1.85;;;7.60;99.90;;;;;;5108971;27;20043;-87
2023/04/20 00:39:06;;;;;;;8.55;1.75;;;7.60;99.90;;;;;;5110124;27;20043;-87
2023/04/20 00:41:32;;;;;;;5.40;2.08;;;7.60;99.90;;;;;;5111140;27;20062;-86
2023/04/20 00:43:57;;;;;;;7.20;1.90;;;7.60;99.90;;;;;;5097595;27;20054;-87
2023/04/20 00:46:23;;;;;;;4.85;2.17;;;7.60;99.90;;;;;;5102590;27;20199;-87
2023/04/20 00:48:51;;;;;;;6.72;2.08;;;7.70;99.90;;;;;;5117699;27;20508;-87
2023/04/20 00:51:18;;;;;;;4.28;1.85;;;7.70;99.90;;;;;;5110306;27;20091;-87
2023/04/20 00:53:44;;;;;;;7.03;2.28;;;7.70;99.90;;;;;;5097007;27;20035;-87
2023/04/20 00:56:12;;;;;;;6.65;2.30;;;7.70;99.90;;;;;;5096395;27;20043;-87
2023/04/20 00:58:38;;;;;;;12.10;1.90;;;7.60;99.90;;;;;;5109643;27;20061;-87
2023/04/20 01:01:04;;;;;;;7.25;2.22;;;7.60;99.90;;;;;;5110534;27;20478;-87
2023/04/20 01:03:30;;;;;;;5.57;1.98;;;7.60;99.90;;;;;;5109319;27;20432;-86
2023/04/20 01:05:56;;;;;;;5.43;1.80;;;7.50;99.90;;;;;;5095575;27;20039;-86
2023/04/20 01:08:26;;;;;;;8.68;2.17;;;7.50;99.90;;;;;;5103775;27;20047;-86
2023/04/20 01:10:53;;;;;;;6.57;1.63;;;7.50;99.90;;;;;;5120451;27;20046;-87
2023/04/20 01:13:19;;;;;;;7.28;1.90;;;7.50;99.90;;;;;;5102416;27;20073;-86
2023/04/20 01:15:45;;;;;;;8.63;1.90;;;7.50;99.90;;;;;;5112257;28;20047;-86
2023/04/20 01:18:11;;;;;;;8.07;1.70;;;7.60;99.90;;;;;;5110240;27;20084;-85
2023/04/20 01:20:36;;;;;;;6.45;1.73;;;7.60;99.90;;;;;;5107874;27;20055;-86
2023/04/20 01:23:02;;;;;;;10.75;1.92;;;7.70;99.90;;;;;;5110839;27;20045;-86
2023/04/20 01:25:28;;;;;;;6.20;1.60;;;7.80;99.90;;;;;;5115346;27;20460;-86
2023/04/20 01:27:54;;;;;;;8.20;2.28;;;7.70;99.90;;;;;;5116504;27;20386;-87
2023/04/20 01:30:20;;;;;;;12.80;2.40;;;7.70;99.90;;;;;;5105021;28;20058;-86
2023/04/20 01:32:46;;;;;;;9.32;2.03;;;8.10;99.90;;;;;;5099675;27;20100;-87
2023/04/20 01:35:12;;;;;;;9.55;2.00;;;7.70;99.90;;;;;;5083144;27;20041;-86
2023/04/20 01:37:39;;;;;;;6.28;1.80;;;7.70;99.90;;;;;;5105309;27;20130;-87
2023/04/20 01:40:08;;;;;;;9.23;2.10;;;7.60;99.90;;;;;;5086538;27;20033;-87
2023/04/20 01:42:34;;;;;;;4.22;1.55;;;7.60;99.90;;;;;;5096984;28;20388;-85
2023/04/20 01:45:00;;;;;;;7.95;1.83;;;7.60;99.90;;;;;;5083034;27;20035;-86
2023/04/20 01:47:25;;;;;;;5.90;1.90;;;7.50;99.90;;;;;;5093968;27;20107;-85
2023/04/20 01:49:51;;;;;;;6.70;2.55;;;7.50;99.90;;;;;;5096047;27;20050;-86
2023/04/20 01:52:17;;;;;;;10.30;2.38;;;7.40;99.90;;;;;;5105299;27;20078;-86
2023/04/20 01:54:42;;;;;;;6.95;2.22;;;7.40;99.90;;;;;;5103811;28;20499;-86
2023/04/20 01:57:08;;;;;;;5.53;1.80;;;7.30;99.90;;;;;;5115701;27;20039;-85
2023/04/20 01:59:34;;;;;;;5.68;1.92;;;7.30;99.90;;;;;;5082460;27;20064;-86
2023/04/20 02:02:00;;;;;;;7.28;1.83;;;7.10;99.90;;;;;;5104452;27;20035;-86
2023/04/20 02:04:25;;;;;;;9.15;2.25;;;7.10;99.90;;;;;;5085270;27;20089;-87
2023/04/20 02:06:51;;;;;;;10.95;2.00;;;7.00;99.90;;;;;;5103125;28;20050;-86
2023/04/20 02:09:16;;;;;;;8.13;2.15;;;7.40;99.90;;;;;;5085175;27;20043;-89
2023/04/20 02:11:42;;;;;;;8.70;2.30;;;7.40;99.90;;;;;;5112006;27;20043;-87
2023/04/20 02:14:08;;;;;;;9.55;2.45;;;6.90;99.90;;;;;;5112859;27;20035;-87
2023/04/20 02:16:34;;;;;;;9.07;2.22;;;7.20;99.90;;;;;;5096336;28;20094;-86
2023/04/20 02:19:00;;;;;;;10.82;2.60;;;7.20;99.90;;;;;;5112246;27;20046;-87
2023/04/20 02:21:26;;;;;;;6.57;2.28;;;6.80;99.90;;;;;;5096431;27;20499;-87
2023/04/20 02:23:52;;;;;;;7.35;2.35;;;6.70;99.90;;;;;;5104112;28;20047;-87
2023/04/20 02:26:18;;;;;;;7.80;2.72;;;7.00;99.90;;;;;;5098416;27;20039;-87
2023/04/20 02:28:44;;;;;;;8.88;2.58;;;6.80;99.90;;;;;;5072828;28;20372;-86
2023/04/20 02:31:09;;;;;;;11.35;2.40;;;6.60;99.90;;;;;;5098053;27;20058;-86
2023/04/20 02:33:35;;;;;;;10.43;2.50;;;6.60;99.90;;;;;;5111024;27;20071;-86
2023/04/20 02:36:01;;;;;;;10.18;2.67;;;6.80;99.90;;;;;;5096102;28;20063;-86
2023/04/20 02:38:27;;;;;;;8.20;2.70;;;6.70;99.90;;;;;;5093939;28;20036;-87
2023/04/20 02:40:54;;;;;;;9.30;2.45;;;6.80;99.90;;;;;;5104017;27;20043;-86
2023/04/20 02:43:20;;;;;;;8.23;2.15;;;6.80;99.90;;;;;;5083368;27;20035;-88
2023/04/20 02:45:45;;;;;;;8.75;2.72;;;6.90;99.90;;;;;;5097299;27;20431;-87
2023/04/20 02:48:12;;;;;;;8.23;2.03;;;7.00;99.90;;;;;;5111410;27;20035;-86
2023/04/20 02:50:37;;;;;;;7.30;2.08;;;7.20;99.90;;;;;;5096050;28;20118;-86
2023/04/20 02:53:03;;;;;;;8.45;2.03;;;7.20;99.90;;;;;;5104369;28;20035;-88
2023/04/20 02:55:29;;;;;;;6.03;2.40;;;7.30;99.90;;;;;;5087390;27;20167;-87
2023/04/20 02:57:55;;;;;;;10.55;2.30;;;7.30;99.90;;;;;;5093972;27;20119;-87
2023/04/20 03:00:21;;;;;;;8.63;2.47;;;7.40;99.90;;;;;;5103608;27;20421;-87
2023/04/20 03:02:47;;;;;;;5.47;1.85;;;7.50;99.90;;;;;;5077675;28;20035;-87
2023/04/20 03:05:12;;;;;;;9.20;2.00;;;7.50;99.90;;;;;;5086856;27;20050;-87
2023/04/20 03:07:38;;;;;;;7.38;1.88;;;7.60;99.90;;;;;;5097924;28;20047;-87
2023/04/20 03:10:05;;;;;;;11.25;2.42;;;7.70;99.90;;;;;;5087466;27;20039;-87
2023/04/20 03:12:30;;;;;;;9.07;1.88;;;7.70;99.90;;;;;;5113764;27;20047;-87
2023/04/20 03:14:56;;;;;;;8.70;2.35;;;7.70;99.90;;;;;;5097644;27;20047;-87
2023/04/20 03:17:22;;;;;;;11.63;2.38;;;7.80;99.90;;;;;;5092984;27;20483;-87
2023/04/20 03:19:48;;;;;;;9.00;2.15;;;8.30;99.90;;;;;;5103136;27;20047;-86
2023/04/20 03:22:13;;;;;;;9.10;2.13;;;7.80;99.90;;;;;;5079792;27;20070;-87
2023/04/20 03:24:39;;;;;;;9.77;2.30;;;8.00;99.90;;;;;;5093475;27;20323;-87
2023/04/20 03:27:05;;;;;;;7.95;2.33;;;7.90;99.90;;;;;;5102146;28;20078;-87
2023/04/20 03:29:30;;;;;;;8.13;2.10;;;8.10;99.90;;;;;;5087401;27;20509;-87
2023/04/20 03:31:56;;;;;;;10.95;2.47;;;7.90;99.90;;;;;;5094128;27;20411;-87
2023/04/20 03:34:22;;;;;;;5.35;2.10;;;7.90;99.90;;;;;;5102049;28;20066;-86
2023/04/20 03:36:48;;;;;;;6.70;2.33;;;7.90;99.90;;;;;;5085313;27;20526;-87
2023/04/20 03:39:13;;;;;;;9.00;2.20;;;7.90;99.90;;;;;;5108238;27;20035;-87
2023/04/20 03:41:39;;;;;;;5.93;2.00;;;7.90;99.90;;;;;;5080623;27;20147;-86
2023/04/20 03:44:05;;;;;;;9.15;1.67;;;7.90;99.90;;;;;;5093798;27;20039;-87
2023/04/20 03:46:32;;;;;;;9.20;1.83;;;8.30;99.90;;;;;;5109347;27;20083;-87
2023/04/20 03:48:58;;;;;;;11.57;2.30;;;7.90;99.90;;;;;;5096885;28;20142;-87
2023/04/20 03:51:23;;;;;;;8.00;2.08;;;7.90;99.90;;;;;;5092544;28;20122;-87
2023/04/20 03:53:50;;;;;;;8.98;2.38;;;8.20;99.90;;;;;;5079488;28;20085;-87
2023/04/20 03:56:16;;;;;;;6.68;2.10;;;7.90;99.90;;;;;;5110204;28;20043;-86
2023/04/20 03:58:41;;;;;;;6.00;2.00;;;7.90;99.90;;;;;;5110509;28;20049;-86
2023/04/20 04:01:08;;;;;;;6.53;1.85;;;7.90;99.90;;;;;;5102093;28;20039;-87
2023/04/20 04:03:34;;;;;;;5.53;1.85;;;7.90;99.90;;;;;;5097771;28;20043;-87
2023/04/20 04:06:01;;;;;;;7.53;2.20;;;7.90;99.90;;;;;;5096214;28;20045;-86
2023/04/20 04:08:27;;;;;;;5.22;1.60;;;7.90;99.90;;;;;;5095929;28;20043;-87
2023/04/20 04:10:53;;;;;;;5.85;1.40;;;7.90;99.90;;;;;;5093211;28;20046;-86
2023/04/20 04:13:18;;;;;;;7.25;2.00;;;8.20;99.90;;;;;;5093220;28;20042;-87
2023/04/20 04:15:44;;;;;;;6.45;1.90;;;7.90;99.90;;;;;;5096022;28;20125;-86
2023/04/20 04:18:10;;;;;;;8.13;1.92;;;7.80;99.90;;;;;;5096452;28;20055;-86
2023/04/20 04:20:36;;;;;;;8.10;1.90;;;7.80;99.90;;;;;;5078549;28;20058;-86
2023/04/20 04:23:02;;;;;;;5.60;1.85;;;7.80;99.90;;;;;;5105382;27;20035;-87
2023/04/20 04:25:28;;;;;;;10.65;2.13;;;7.80;99.90;;;;;;5104663;28;20544;-87
2023/04/20 04:27:54;;;;;;;14.15;1.63;;;7.70;99.90;;;;;;5108493;28;20039;-88
2023/04/20 04:30:20;;;;;;;7.65;1.98;;;7.70;99.90;;;;;;5118816;28;20134;-87
2023/04/20 04:32:45;;;;;;;8.45;1.65;;;7.80;99.90;;;;;;5091512;28;20055;-87
2023/04/20 04:35:12;;;;;;;6.40;1.80;;;7.60;99.90;;;;;;5073629;28;20185;-87
2023/04/20 04:37:38;;;;;;;8.43;1.92;;;7.60;99.90;;;;;;5085886;28;20428;-87
2023/04/20 04:40:06;;;;;;;7.55;1.52;;;8.10;99.90;;;;;;5103613;28;20097;-88
2023/04/20 04:42:33;;;;;;;9.35;2.20;;;7.50;99.90;;;;;;5096878;28;20130;-88
2023/04/20 04:45:01;;;;;;;5.90;1.88;;;7.50;99.90;;;;;;5081734;28;20039;-88
2023/04/20 04:47:28;;;;;;;4.13;1.50;;;7.90;99.90;;;;;;5093070;28;20480;-88
2023/04/20 04:49:54;;;;;;;5.45;2.42;;;7.50;99.90;;;;;;5101756;28;20044;-88
2023/04/20 04:52:20;;;;;;;10.68;2.78;;;7.60;99.90;;;;;;5094819;27;20066;-88
2023/04/20 04:54:46;;;;;;;6.15;1.70;;;7.60;99.90;;;;;;5097609;27;20035;-88
2023/04/20 04:57:13;;;;;;;7.15;1.73;;;7.60;99.90;;;;;;5108316;27;20050;-89
2023/04/20 04:59:39;;;;;;;6.22;2.22;;;7.60;99.90;;;;;;5105193;28;20047;-88
2023/04/20 05:02:05;;;;;;;5.88;1.77;;;7.50;99.90;;;;;;5091970;27;20146;-88
2023/04/20 05:04:31;;;;;;;10.15;2.40;;;7.50;99.90;;;;;;5080019;28;20130;-88
2023/04/20 05:06:56;;;;;;;9.35;1.92;;;7.50;99.90;;;;;;5094093;28;20090;-88
2023/04/20 05:09:22;;;;;;;7.65;2.83;;;7.50;99.90;;;;;;5089051;27;20502;-89
2023/04/20 05:11:48;;;;;;;6.55;1.70;;;7.50;99.90;;;;;;5113772;27;20089;-88
2023/04/20 05:14:13;;;;;;;9.27;1.98;;;7.40;99.90;;;;;;5114714;27;20039;-88
2023/04/20 05:16:39;;;;;;;4.88;2.05;;;7.50;99.90;;;;;;5113165;27;20047;-89
2023/04/20 05:19:05;;;;;;;8.32;2.63;;;7.40;99.90;;;;;;5083982;27;20470;-88
2023/04/20 05:21:31;;;;;;;6.18;1.73;;;7.50;99.90;;;;;;5105299;27;20130;-89
2023/04/20 05:23:57;;;;;;;8.18;2.00;;;7.50;99.90;;;;;;5084996;27;20039;-87
2023/04/20 05:26:23;;;;;;;8.40;1.98;;;7.40;99.90;;;;;;5095555;27;20126;-88
2023/04/20 05:28:48;;;;;;;9.05;1.90;;;7.40;99.90;;;;;;5113334;27;20080;-87
2023/04/20 05:31:14;;;;;;;7.03;2.35;;;7.40;99.90;;;;;;5112608;27;20051;-88
2023/04/20 05:33:40;;;;;;;7.35;2.10;;;7.50;99.90;;;;;;5100049;27;20476;-89
2023/04/20 05:36:09;;;;;;;7.53;2.55;;;7.40;99.90;;;;;;5106502;27;20039;-89
2023/04/20 05:38:35;;;;;;;11.45;2.00;;;7.40;99.90;;;;;;5112772;27;20035;-88
2023/04/20 05:41:00;;;;;;;6.32;1.80;;;7.40;99.90;;;;;;5099421;27;20113;-89
2023/04/20 05:43:26;;;;;;;8.25;2.08;;;7.40;99.90;;;;;;5113322;27;20036;-88
2023/04/20 05:45:52;;;;;;;7.75;2.10;;;7.40;99.90;;;;;;5112137;27;20043;-88
2023/04/20 05:48:17;;;;;;;6.10;2.00;;;7.60;99.90;;;;;;5083257;27;20466;-89
2023/04/20 05:50:43;;;;;;;8.77;1.92;;;7.40;99.90;;;;;;5106449;27;20047;-88
2023/04/20 05:53:09;;;;;;;8.60;2.13;;;7.40;99.90;;;;;;5104970;28;20035;-88
2023/04/20 05:55:35;;;;;;;8.48;2.47;;;7.40;99.90;;;;;;5104256;27;20042;-89
2023/04/20 05:58:00;;;;;;;6.03;2.20;;;7.40;99.90;;;;;;5112992;27;20130;-89
2023/04/20 06:00:26;;;;;;;8.68;1.95;;;7.40;99.90;;;;;;5125411;27;20500;-89
2023/04/20 06:02:53;;;;;;;8.95;2.50;;;7.40;99.90;;;;;;5113020;27;20039;-88
2023/04/20 06:05:21;;;;;;;12.43;1.88;;;7.40;99.90;;;;;;5112610;27;20118;-88
2023/04/20 06:07:47;;;;;;;8.10;2.10;;;7.40;99.90;;;;;;5104946;27;20035;-88
2023/04/20 06:10:13;;;;;;;11.98;2.80;;;7.40;99.90;;;;;;5098463;28;20109;-89
2023/04/20 06:12:39;;;;;;;5.75;1.85;;;7.50;99.90;;;;;;5089288;27;20478;-89
2023/04/20 06:15:07;;;;;;;11.52;2.40;;;7.40;99.90;;;;;;5098100;27;20039;-88
2023/04/20 06:17:35;;;;;;;10.40;1.90;;;7.40;99.90;;;;;;5083548;27;20076;-88
2023/04/20 06:20:00;;;;;;;6.82;1.90;;;7.40;99.90;;;;;;5095837;27;20130;-88
2023/04/20 06:22:26;;;;;;;5.43;1.58;;;7.30;99.90;;;;;;5099646;27;20134;-89
2023/04/20 06:24:52;;;;;;;6.63;1.92;;;7.30;99.90;;;;;;5113625;27;20039;-89
2023/04/20 06:27:17;;;;;;;8.20;1.88;;;7.20;99.90;;;;;;5104424;28;20062;-88
2023/04/20 06:29:43;;;;;;;10.23;2.30;;;7.40;99.90;;;;;;5090476;27;20084;-88
2023/04/20 06:32:11;;;;;;;8.55;2.33;;;7.20;99.90;;;;;;5096470;27;20101;-88
2023/04/20 06:34:37;;;;;;;6.80;2.28;;;7.20;99.90;;;;;;5094407;27;20040;-87
2023/04/20 06:37:05;;;;;;;6.57;1.75;;;7.20;99.90;;;;;;5111963;27;20057;-88
2023/04/20 06:39:31;;;;;;;7.32;1.98;;;7.60;99.90;;;;;;5112157;27;20102;-89
2023/04/20 06:41:58;;;;;;;7.88;1.95;;;7.20;99.90;;;;;;5112879;27;20539;-89
2023/04/20 06:44:24;;;;;;;6.82;2.00;;;7.10;99.90;;;;;;5109599;27;20035;-89
2023/04/20 06:46:50;;;;;;;7.13;2.03;;;7.10;99.90;;;;;;5091691;28;20122;-89
2023/04/20 06:49:15;;;;;;;5.90;1.90;;;7.00;99.90;;;;;;5089854;27;20630;-90
2023/04/20 06:51:42;;;;;;;9.18;2.45;;;7.30;99.90;;;;;;5084019;27;20039;-90
2023/04/20 06:54:07;;;;;;;4.80;1.98;;;7.00;99.90;;;;;;5110314;27;20046;-90
2023/04/20 06:56:33;;;;;;;8.25;2.50;;;7.00;99.90;;;;;;5104439;27;20043;-90
2023/04/20 06:58:59;;;;;;;10.05;2.38;;;8.00;99.90;;;;;;5102562;28;20050;-90
2023/04/20 07:01:25;;;;;;;7.05;2.10;;;7.00;99.90;;;;;;5084252;27;20074;-90
2023/04/20 07:03:51;;;;;;;7.28;2.10;;;7.00;99.90;;;;;;5105602;27;20053;-89
2023/04/20 07:06:17;;;;;;;7.10;3.58;;;7.00;99.90;;;;;;5101715;27;20137;-89
2023/04/20 07:08:42;;;;;;;6.32;2.55;;;6.90;99.90;;;;;;5103836;28;20495;-86
2023/04/20 07:11:08;;;;;;;6.57;2.28;;;6.90;99.90;;;;;;5087535;28;20047;-88
2023/04/20 07:13:34;;;;;;;8.23;2.80;;;6.90;99.90;;;;;;5110134;27;20047;-87
2023/04/20 07:16:00;;;;;;;6.38;2.25;;;6.80;99.90;;;;;;5102467;27;20398;-86
2023/04/20 07:18:25;;;;;;;5.25;2.53;;;6.80;99.90;;;;;;5123268;27;20510;-86
2023/04/20 07:20:51;;;;;;;5.88;2.72;;;6.80;99.90;;;;;;5120267;27;20066;-86
2023/04/20 07:23:17;;;;;;;9.05;2.90;;;6.90;99.90;;;;;;5114068;27;20043;-86
2023/04/20 07:25:42;;;;;;;7.40;2.22;;;6.90;99.90;;;;;;5087520;27;20354;-84
2023/04/20 07:28:08;;;;;;;5.68;2.72;;;6.90;99.90;;;;;;5111264;27;20059;-87
2023/04/20 07:30:34;;;;;;;6.03;2.58;;;6.90;99.90;;;;;;5073156;28;20056;-86
2023/04/20 07:33:00;;;;;;;6.15;2.85;;;6.90;99.90;;;;;;5073447;28;20036;-87
2023/04/20 07:35:25;;;;;;;4.53;2.33;;;6.90;99.90;;;;;;5074164;28;20035;-87
2023/04/20 07:37:51;;;;;;;7.13;2.95;;;6.90;99.90;;;;;;5088354;28;20043;-87
2023/04/20 07:40:17;;;;;;;4.72;2.42;;;6.90;99.90;;;;;;5066458;28;20036;-88
2023/04/20 07:42:42;;;;;;;6.57;3.05;;;7.00;99.90;;;;;;5070669;28;20090;-88
2023/04/20 07:45:10;;;;;;;7.07;2.55;;;7.00;99.90;;;;;;5067671;28;20035;-88
2023/04/20 07:47:36;;;;;;;8.30;3.00;;;7.00;99.90;;;;;;5078029;28;20047;-87
2023/04/20 07:50:04;;;;;;;8.95;3.10;;;7.00;99.90;;;;;;5074766;28;20028;-85
2023/04/20 07:52:30;;;;;;;7.32;2.70;;;7.00;99.90;;;;;;5071523;28;20048;-90
2023/04/20 07:54:57;;;;;;;6.20;2.50;;;7.00;99.90;;;;;;5055634;28;20044;-87
2023/04/20 07:57:23;;;;;;;6.55;2.80;;;7.50;99.90;;;;;;5072592;28;20134;-87
2023/04/20 07:59:49;;;;;;;7.93;3.17;;;7.40;99.90;;;;;;5072735;28;20043;-85
2023/04/20 08:02:15;;;;;;;8.85;3.00;;;7.10;99.90;;;;;;5071529;28;20035;-87
2023/04/20 08:04:43;;;;;;;6.50;3.20;;;7.00;99.90;;;;;;5073338;28;20618;-87
2023/04/20 08:07:09;;;;;;;9.60;3.15;;;7.00;99.90;;;;;;5072017;28;20058;-87
2023/04/20 08:09:35;;;;;;;6.18;2.90;;;7.60;99.90;;;;;;5073670;28;20044;-88
2023/04/20 08:12:01;;;;;;;8.40;3.08;;;7.10;99.90;;;;;;5073999;28;20044;-88
2023/04/20 08:14:27;;;;;;;5.93;3.10;;;7.10;99.90;;;;;;5071924;28;20075;-87
2023/04/20 08:16:52;;;;;;;8.23;3.33;;;7.30;99.90;;;;;;5060522;28;20154;-87
2023/04/20 08:19:18;;;;;;;10.25;3.10;;;7.20;99.90;;;;;;5090794;28;20358;-87
2023/04/20 08:21:44;;;;;;;6.72;3.30;;;7.60;99.90;;;;;;5089075;28;20051;-88
2023/04/20 08:24:10;;;;;;;9.55;3.33;;;7.80;99.90;;;;;;5074080;28;20043;-87
2023/04/20 08:26:36;;;;;;;7.38;2.63;;;7.20;99.90;;;;;;5076090;28;20032;-87
2023/04/20 08:29:02;;;;;;;6.50;3.15;;;8.00;99.90;;;;;;5083208;27;20047;-88
2023/04/20 08:31:31;;;;;;;5.95;3.17;;;7.10;99.90;;;;;;5094177;28;20079;-88
2023/04/20 08:34:00;;;;;;;9.60;3.20;;;7.10;99.90;;;;;;5078866;28;20479;-88
2023/04/20 08:36:26;;;;;;;7.63;3.28;;;7.10;99.90;;;;;;5075118;28;20135;-88
2023/04/20 08:38:57;;;;;;;8.63;3.53;;;7.00;99.90;;;;;;5074676;28;20090;-88
2023/04/20 08:41:25;;;;;;;8.18;3.17;;;7.10;99.90;;;;;;5089227;28;20039;-88
2023/04/20 08:43:51;;;;;;;9.32;3.63;;;7.10;99.90;;;;;;5065487;28;20407;-88
2023/04/20 08:46:17;;;;;;;9.15;3.55;;;6.70;99.90;;;;;;5066179;28;20483;-88
2023/04/20 08:48:46;;;;;;;8.23;3.65;;;7.20;99.90;;;;;;5076288;28;20044;-88
2023/04/20 08:51:14;;;;;;;11.38;4.22;;;7.80;99.90;;;;;;5059176;28;20035;-88
2023/04/20 08:53:40;;;;;;;8.85;3.45;;;7.30;99.90;;;;;;5070023;28;20053;-87
2023/04/20 08:56:06;;;;;;;14.93;4.68;;;7.40;99.90;;;;;;5069884;28;20102;-87
2023/04/20 08:58:32;;;;;;;9.80;3.97;;;7.40;99.90;;;;;;5070591;28;20036;-87
2023/04/20 09:00:59;;;;;;;10.77;4.18;;;7.50;99.90;;;;;;5077441;28;20040;-88
2023/04/20 09:03:33;;;;;;;12.00;4.13;;;7.70;99.90;;;;;;5064091;28;20122;-89
2023/04/20 09:05:59;;;;;;;11.57;4.20;;;7.80;99.90;;;;;;5056961;28;20055;-88
2023/04/20 09:08:38;;;;;;;10.52;4.03;;;8.70;99.90;;;;;;5063712;28;20472;-88
2023/04/20 09:11:04;;;;;;;8.73;4.40;;;7.90;99.90;;;;;;5065676;28;20441;-88
2023/04/20 09:13:33;;;;;;;7.78;3.90;;;8.00;99.90;;;;;;5064028;28;20144;-88
2023/04/20 09:16:09;;;;;;;12.05;4.10;;;8.70;99.90;;;;;;5077022;28;20139;-89
2023/04/20 09:18:36;;;;;;;10.38;3.92;;;8.10;99.90;;;;;;5076792;28;20044;-89
2023/04/20 09:21:08;;;;;;;7.18;4.28;;;8.90;99.90;;;;;;5094010;28;20123;-88
2023/04/20 09:23:33;;;;;;;10.70;3.95;;;8.50;99.90;;;;;;5059460;28;20040;-89
2023/04/20 09:25:59;;;;;;;9.68;4.15;;;8.40;99.90;;;;;;5066461;28;20048;-89
2023/04/20 09:28:37;;;;;;;10.18;4.22;;;8.50;99.90;;;;;;5093320;27;20125;-89
2023/04/20 09:31:04;;;;;;;10.68;4.28;;;8.30;99.90;;;;;;5093472;28;20046;-88
2023/04/20 09:33:31;;;;;;;10.30;3.60;;;8.30;99.90;;;;;;5113799;27;20047;-88
2023/04/20 09:36:04;;;;;;;11.93;3.80;;;8.40;99.90;;;;;;5099574;27;20054;-88
2023/04/20 09:38:29;;;;;;;9.60;4.00;;;8.40;99.90;;;;;;5112543;27;20075;-88
2023/04/20 09:41:06;;;;;;;13.45;4.53;;;9.20;99.90;;;;;;5114258;27;20073;-89
2023/04/20 09:43:34;;;;;;;13.15;3.67;;;8.40;99.90;;;;;;5107992;27;20046;-90
2023/04/20 09:46:01;;;;;;;7.65;3.85;;;8.50;99.90;;;;;;5099482;27;20031;-90
2023/04/20 09:48:28;;;;;;;8.98;3.97;;;8.60;99.90;;;;;;5114134;27;20047;-90
2023/04/20 09:50:55;;;;;;;10.52;4.03;;;8.70;99.90;;;;;;5110835;28;20036;-90
2023/04/20 09:53:20;;;;;;;12.75;3.70;;;8.90;99.90;;;;;;5086839;27;20050;-91
2023/04/20 09:55:48;;;;;;;11.68;4.25;;;9.00;99.90;;;;;;5096957;27;20035;-89
2023/04/20 09:58:16;;;;;;;7.20;3.72;;;9.10;99.90;;;;;;5103589;28;20126;-90
2023/04/20 10:00:42;;;;;;;8.85;3.75;;;9.10;99.90;;;;;;5107876;27;20030;-89
2023/04/20 10:03:11;;;;;;;10.75;4.15;;;9.10;99.90;;;;;;5114552;27;20446;-90
2023/04/20 10:05:38;;;;;;;10.82;4.03;;;8.50;99.90;;;;;;5109448;28;20185;-90
2023/04/20 10:08:05;;;;;;;9.27;3.58;;;9.20;99.90;;;;;;5101539;28;20075;-90
2023/04/20 10:10:48;;;;;;;9.50;3.50;;;9.40;99.90;;;;;;5094177;27;20085;-90
2023/04/20 10:13:14;;;;;;;;;;;9.40;99.90;;;;;;5117252;27;20035;-90
2023/04/20 10:15:41;;;;;;;8.60;3.47;;;9.30;99.90;;;;;;5099885;27;19923;-90
2023/04/20 10:18:16;;;;;;;10.15;3.53;;;9.20;99.90;;;;;;5113697;27;20498;-90
2023/04/20 10:20:48;;;;;;;6.72;3.60;;;9.80;99.90;;;;;;5108375;27;20039;-91
2023/04/20 10:23:15;;;;;;;10.70;3.70;;;9.10;99.90;;;;;;5119445;27;20039;-90
2023/04/20 10:25:43;;;;;;;10.50;4.10;;;9.00;99.90;;;;;;5104322;28;20051;-90
2023/04/20 10:28:09;;;;;;;11.13;4.35;;;9.60;99.90;;;;;;5109440;27;20174;-91
2023/04/20 10:30:49;;;;;;;9.70;4.15;;;8.80;99.90;;;;;;5112830;27;20110;-90
2023/04/20 10:33:16;;;;;;;10.02;3.85;;;8.80;99.90;;;;;;5096354;28;20054;-91
2023/04/20 10:35:54;;;;;;;8.57;4.22;;;8.70;99.90;;;;;;5104492;27;20047;-91
2023/04/20 10:38:40;;;;;;;8.82;3.97;;;8.60;99.90;;;;;;5099826;27;20039;-89
2023/04/20 10:41:08;;;;;;;12.52;4.55;;;8.50;99.90;;;;;;5113081;27;20051;-87
2023/04/20 10:43:34;;;;;;;7.53;4.55;;;8.40;99.90;;;;;;5114100;27;20043;-90
2023/04/20 10:46:00;;;;;;;11.40;4.70;;;8.30;99.90;;;;;;5110057;27;20118;-89
2023/04/20 10:48:26;;;;;;;12.93;4.63;;;8.30;99.90;;;;;;5083998;27;20071;-90
2023/04/20 10:50:52;;;;;;;10.55;4.85;;;8.20;99.90;;;;;;5096165;27;20083;-90
2023/04/20 10:53:21;;;;;;;8.48;4.60;;;8.30;99.90;;;;;;5102090;27;20043;-90
2023/04/20 10:55:56;;;;;;;9.52;4.88;;;8.40;99.90;;;;;;5100804;27;20046;-90
2023/04/20 10:58:31;;;;;;;8.77;4.47;;;8.50;99.90;;;;;;5101531;28;20495;-90
2023/04/20 11:01:01;;;;;;;10.57;4.53;;;8.70;99.90;;;;;;5111838;27;20125;-90
2023/04/20 11:03:28;;;;;;;8.30;4.43;;;8.70;99.90;;;;;;5113904;27;20031;-89
2023/04/20 11:05:59;;;;;;;10.57;5.28;;;8.70;99.90;;;;;;5099385;27;20042;-88
2023/04/20 11:08:39;;;;;;;11.30;5.28;;;8.70;99.90;;;;;;5107473;27;20039;-89
2023/04/20 11:11:06;;;;;;;9.45;4.68;;;8.70;99.90;;;;;;5114442;27;20043;-89
2023/04/20 11:13:32;;;;;;;14.10;5.13;;;9.10;99.90;;;;;;5109659;27;20074;-90
2023/04/20 11:15:58;;;;;;;10.73;5.22;;;8.70;99.90;;;;;;5111580;27;20073;-90
2023/04/20 11:18:24;;;;;;;9.27;4.90;;;8.60;99.90;;;;;;5111945;27;20123;-90
2023/04/20 11:20:52;;;;;;;10.50;5.35;;;8.60;99.90;;;;;;5102429;28;20047;-89
2023/04/20 11:23:20;;;;;;;10.90;5.18;;;8.60;99.90;;;;;;5100033;27;20050;-90
2023/04/20 11:25:52;;;;;;;8.88;5.43;;;8.90;99.90;;;;;;5095638;27;20077;-90
2023/04/20 11:28:18;;;;;;;9.48;5.68;;;8.80;99.90;;;;;;5110606;27;20137;-89
2023/04/20 11:30:44;;;;;;;10.27;5.18;;;8.80;99.90;;;;;;5109952;27;20126;-92
2023/04/20 11:33:10;;;;;;;14.30;5.63;;;8.80;99.90;;;;;;5123472;27;20114;-91
2023/04/20 11:35:40;;;;;;;13.07;5.57;;;8.80;99.90;;;;;;5105440;27;20868;-91
2023/04/20 11:38:06;;;;;;;13.15;5.43;;;8.70;99.90;;;;;;5109489;27;20159;-91
2023/04/20 11:40:32;;;;;;;8.27;5.20;;;8.60;99.90;;;;;;5103498;27;20051;-91
2023/04/20 11:42:59;;;;;;;10.93;5.47;;;8.50;99.90;;;;;;5111680;28;20027;-90
2023/04/20 11:45:26;;;;;;;10.20;5.82;;;9.60;99.90;;;;;;5113614;28;20532;-89
2023/04/20 11:47:53;;;;;;;11.27;6.28;;;8.90;99.90;;;;;;5113610;28;20071;-89
2023/04/20 11:50:20;;;;;;;12.43;6.32;;;8.60;99.90;;;;;;5114275;28;20039;-90
2023/04/20 11:52:46;;;;;;;17.77;6.60;;;9.00;99.90;;;;;;5112996;28;20039;-91
2023/04/20 11:55:12;;;;;;;14.50;6.85;;;8.70;99.90;;;;;;5113864;27;20065;-89
2023/04/20 11:57:37;;;;;;;12.75;6.43;;;10.00;99.90;;;;;;5113038;28;20043;-92
2023/04/20 12:00:05;;;;;;;16.20;7.15;;;9.30;99.90;;;;;;5110777;28;20047;-89
2023/04/20 12:02:31;;;;;;;13.63;6.10;;;9.50;99.90;;;;;;5092461;28;20043;-88
2023/04/20 12:04:56;;;;;;;13.60;6.72;;;9.70;99.90;;;;;;5093371;28;20057;-88
2023/04/20 12:07:52;;;;;;;15.30;6.50;;;10.10;99.90;;;;;;5105485;28;20044;-89
2023/04/20 12:10:17;;;;;;;11.80;6.50;;;10.40;99.90;;;;;;5106679;28;20082;-88
2023/04/20 12:12:52;;;;;;;9.95;6.90;;;10.80;99.90;;;;;;5094265;28;20082;-89
2023/04/20 12:15:18;;;;;;;9.95;6.20;;;10.70;99.90;;;;;;5094626;28;20119;-87
2023/04/20 12:17:44;;;;;;;15.13;6.75;;;10.60;99.90;;;;;;5094592;28;20063;-89
2023/04/20 12:20:10;;;;;;;11.13;5.95;;;11.50;99.90;;;;;;5105010;28;20031;-90
2023/04/20 12:22:36;;;;;;;13.93;6.72;;;10.70;99.90;;;;;;5091944;28;20043;-94
2023/04/20 12:25:20;;;;;;;9.70;6.05;;;10.70;99.90;;;;;;5107956;28;20050;-94
2023/04/20 12:28:06;;;;;;;12.82;7.05;;;10.70;99.90;;;;;;5111795;28;20104;-93
2023/04/20 12:31:23;;;;;;;13.27;6.85;;;10.80;99.90;;;;;;5106182;28;20040;-90
2023/04/20 12:33:27;;;;;;;10.70;6.68;;;10.70;99.90;;;;;;5141428;22;20052;-92
2023/04/20 12:35:55;;;;;;;25.48;6.85;;;10.60;99.90;;;;;;5050505;28;20101;-92
2023/04/20 12:38:35;;;;;;;11.75;7.07;;;10.50;99.90;;;;;;5031135;28;20523;-91
2023/04/20 12:41:03;;;;;;;9.75;6.25;;;10.70;99.90;;;;;;5034786;28;20288;-91
2023/04/20 12:43:31;;;;;;;18.02;6.22;;;10.80;99.90;;;;;;5035763;28;20071;-91
2023/04/20 12:49:41;;;;;;;8.48;5.70;;;10.90;99.90;;;;;;4948987;28;20053;-94
2023/04/20 12:53:57;;;;;;;;;;;;;;;;;;;;;
2023/04/20 12:56:14;;;;;;;19.67;6.32;;;11.50;99.90;;;;;;5053199;28;20097;-94
2023/04/20 13:02:34;;;;;;;;;;;;;;;;;;;;;